sensor_id;sensor_type;location;lat;lon;timestamp;P1;durP1;ratioP1;P2;durP2;ratioP2
79173;SDS011;68599;49.142;9.124;2024-03-07T00:00:05;8.40;;;5.30;;
79173;SDS011;68599;49.142;9.124;2024-03-07T00:02:41;10.20;;;5.60;;
79173;SDS011;68599;49.142;9.124;2024-03-07T00:05:09;7.60;;;3.90;;
79173;SDS011;68599;49.142;9.124;2024-03-07T00:07:36;7.00;;;3.60;;
79173;SDS011;68599;49.142;9.124;2024-03-07T00:10:03;6.20;;;3.50;;
79173;SDS011;68599;49.142;9.124;2024-03-07T00:12:37;9.20;;;5.40;;
79173;SDS011;68599;49.142;9.124;2024-03-07T00:15:11;10.20;;;5.20;;
79173;SDS011;68599;49.142;9.124;2024-03-07T00:17:40;8.90;;;5.60;;
79173;SDS011;68599;49.142;9.124;2024-03-07T00:20:08;9.20;;;4.70;;
79173;SDS011;68599;49.142;9.124;2024-03-07T00:22:36;10.40;;;5.40;;
79173;SDS011;68599;49.142;9.124;2024-03-07T00:25:03;8.70;;;5.30;;
79173;SDS011;68599;49.142;9.124;2024-03-07T00:27:31;9.30;;;5.30;;
79173;SDS011;68599;49.142;9.124;2024-03-07T00:29:59;11.60;;;5.60;;
79173;SDS011;68599;49.142;9.124;2024-03-07T00:32:25;10.80;;;6.10;;
79173;SDS011;68599;49.142;9.124;2024-03-07T00:34:56;10.70;;;5.60;;
79173;SDS011;68599;49.142;9.124;2024-03-07T00:37:25;12.30;;;6.20;;
79173;SDS011;68599;49.142;9.124;2024-03-07T00:39:52;8.80;;;3.90;;
79173;SDS011;68599;49.142;9.124;2024-03-07T00:42:18;10.40;;;5.80;;
79173;SDS011;68599;49.142;9.124;2024-03-07T00:44:45;8.70;;;5.00;;
79173;SDS011;68599;49.142;9.124;2024-03-07T00:47:12;10.90;;;5.50;;
79173;SDS011;68599;49.142;9.124;2024-03-07T00:49:38;7.70;;;4.10;;
79173;SDS011;68599;49.142;9.124;2024-03-07T00:52:05;9.70;;;4.70;;
79173;SDS011;68599;49.142;9.124;2024-03-07T00:54:32;12.00;;;6.10;;
79173;SDS011;68599;49.142;9.124;2024-03-07T00:56:58;9.60;;;4.60;;
79173;SDS011;68599;49.142;9.124;2024-03-07T00:59:25;13.50;;;6.40;;
79173;SDS011;68599;49.142;9.124;2024-03-07T01:01:52;11.60;;;5.80;;
79173;SDS011;68599;49.142;9.124;2024-03-07T01:04:19;7.90;;;3.50;;
79173;SDS011;68599;49.142;9.124;2024-03-07T01:06:45;11.00;;;6.10;;
79173;SDS011;68599;49.142;9.124;2024-03-07T01:09:12;10.50;;;5.40;;
79173;SDS011;68599;49.142;9.124;2024-03-07T01:11:43;13.70;;;6.70;;
79173;SDS011;68599;49.142;9.124;2024-03-07T01:14:14;8.10;;;5.00;;
79173;SDS011;68599;49.142;9.124;2024-03-07T01:16:41;11.30;;;5.80;;
79173;SDS011;68599;49.142;9.124;2024-03-07T01:19:07;15.00;;;7.50;;
79173;SDS011;68599;49.142;9.124;2024-03-07T01:21:34;12.00;;;6.00;;
79173;SDS011;68599;49.142;9.124;2024-03-07T01:24:04;16.70;;;7.20;;
79173;SDS011;68599;49.142;9.124;2024-03-07T01:26:32;13.50;;;7.20;;
79173;SDS011;68599;49.142;9.124;2024-03-07T01:29:01;10.50;;;5.20;;
79173;SDS011;68599;49.142;9.124;2024-03-07T01:31:28;11.30;;;6.10;;
79173;SDS011;68599;49.142;9.124;2024-03-07T01:33:55;15.90;;;7.70;;
79173;SDS011;68599;49.142;9.124;2024-03-07T01:36:21;18.20;;;9.50;;
79173;SDS011;68599;49.142;9.124;2024-03-07T01:38:48;13.40;;;7.20;;
79173;SDS011;68599;49.142;9.124;2024-03-07T01:41:15;16.90;;;8.30;;
79173;SDS011;68599;49.142;9.124;2024-03-07T01:43:42;16.40;;;7.10;;
79173;SDS011;68599;49.142;9.124;2024-03-07T01:46:09;14.80;;;6.30;;
79173;SDS011;68599;49.142;9.124;2024-03-07T01:48:37;17.90;;;8.50;;
79173;SDS011;68599;49.142;9.124;2024-03-07T01:51:04;18.80;;;9.00;;
79173;SDS011;68599;49.142;9.124;2024-03-07T01:53:32;18.00;;;8.50;;
79173;SDS011;68599;49.142;9.124;2024-03-07T01:56:00;16.20;;;7.80;;
79173;SDS011;68599;49.142;9.124;2024-03-07T01:58:29;16.50;;;8.70;;
79173;SDS011;68599;49.142;9.124;2024-03-07T02:00:58;11.70;;;6.00;;
79173;SDS011;68599;49.142;9.124;2024-03-07T02:03:25;15.70;;;8.30;;
79173;SDS011;68599;49.142;9.124;2024-03-07T02:05:52;18.20;;;8.60;;
79173;SDS011;68599;49.142;9.124;2024-03-07T02:08:19;17.40;;;9.20;;
79173;SDS011;68599;49.142;9.124;2024-03-07T02:10:46;14.90;;;7.80;;
79173;SDS011;68599;49.142;9.124;2024-03-07T02:13:12;13.60;;;6.30;;
79173;SDS011;68599;49.142;9.124;2024-03-07T02:15:39;18.00;;;9.20;;
79173;SDS011;68599;49.142;9.124;2024-03-07T02:18:06;14.90;;;7.60;;
79173;SDS011;68599;49.142;9.124;2024-03-07T02:20:33;16.10;;;7.70;;
79173;SDS011;68599;49.142;9.124;2024-03-07T02:22:59;16.40;;;8.00;;
79173;SDS011;68599;49.142;9.124;2024-03-07T02:25:26;12.90;;;6.30;;
79173;SDS011;68599;49.142;9.124;2024-03-07T02:27:53;14.30;;;7.80;;
79173;SDS011;68599;49.142;9.124;2024-03-07T02:30:20;12.30;;;6.50;;
79173;SDS011;68599;49.142;9.124;2024-03-07T02:32:46;16.80;;;9.10;;
79173;SDS011;68599;49.142;9.124;2024-03-07T02:35:18;14.30;;;7.50;;
79173;SDS011;68599;49.142;9.124;2024-03-07T02:37:45;15.70;;;8.40;;
79173;SDS011;68599;49.142;9.124;2024-03-07T02:40:15;17.40;;;8.00;;
79173;SDS011;68599;49.142;9.124;2024-03-07T02:42:42;13.20;;;7.00;;
79173;SDS011;68599;49.142;9.124;2024-03-07T02:45:09;16.70;;;7.80;;
79173;SDS011;68599;49.142;9.124;2024-03-07T02:47:41;9.50;;;5.20;;
79173;SDS011;68599;49.142;9.124;2024-03-07T02:50:09;16.30;;;8.00;;
79173;SDS011;68599;49.142;9.124;2024-03-07T02:52:36;15.70;;;7.90;;
79173;SDS011;68599;49.142;9.124;2024-03-07T02:55:03;14.70;;;6.80;;
79173;SDS011;68599;49.142;9.124;2024-03-07T02:57:31;13.10;;;6.20;;
79173;SDS011;68599;49.142;9.124;2024-03-07T02:59:58;11.20;;;5.60;;
79173;SDS011;68599;49.142;9.124;2024-03-07T03:02:25;18.40;;;7.90;;
79173;SDS011;68599;49.142;9.124;2024-03-07T03:04:51;17.30;;;8.50;;
79173;SDS011;68599;49.142;9.124;2024-03-07T03:07:18;19.00;;;9.70;;
79173;SDS011;68599;49.142;9.124;2024-03-07T03:09:44;14.70;;;8.20;;
79173;SDS011;68599;49.142;9.124;2024-03-07T03:12:11;19.60;;;9.00;;
79173;SDS011;68599;49.142;9.124;2024-03-07T03:14:38;16.40;;;8.70;;
79173;SDS011;68599;49.142;9.124;2024-03-07T03:17:06;17.30;;;9.70;;
79173;SDS011;68599;49.142;9.124;2024-03-07T03:19:35;10.10;;;5.40;;
79173;SDS011;68599;49.142;9.124;2024-03-07T03:22:02;17.70;;;9.30;;
79173;SDS011;68599;49.142;9.124;2024-03-07T03:24:29;12.00;;;6.60;;
79173;SDS011;68599;49.142;9.124;2024-03-07T03:26:57;20.10;;;10.60;;
79173;SDS011;68599;49.142;9.124;2024-03-07T03:29:24;17.30;;;9.00;;
79173;SDS011;68599;49.142;9.124;2024-03-07T03:31:51;16.10;;;8.50;;
79173;SDS011;68599;49.142;9.124;2024-03-07T03:34:17;15.90;;;8.10;;
79173;SDS011;68599;49.142;9.124;2024-03-07T03:36:44;16.00;;;8.00;;
79173;SDS011;68599;49.142;9.124;2024-03-07T03:39:10;12.30;;;6.00;;
79173;SDS011;68599;49.142;9.124;2024-03-07T03:41:40;19.60;;;10.10;;
79173;SDS011;68599;49.142;9.124;2024-03-07T03:44:06;15.90;;;8.70;;
79173;SDS011;68599;49.142;9.124;2024-03-07T03:46:34;16.60;;;8.50;;
79173;SDS011;68599;49.142;9.124;2024-03-07T03:49:00;13.80;;;6.70;;
79173;SDS011;68599;49.142;9.124;2024-03-07T03:51:27;15.10;;;7.70;;
79173;SDS011;68599;49.142;9.124;2024-03-07T03:53:54;15.90;;;8.60;;
79173;SDS011;68599;49.142;9.124;2024-03-07T03:56:20;17.20;;;9.20;;
79173;SDS011;68599;49.142;9.124;2024-03-07T03:58:47;12.30;;;6.50;;
79173;SDS011;68599;49.142;9.124;2024-03-07T04:01:13;12.90;;;5.90;;
79173;SDS011;68599;49.142;9.124;2024-03-07T04:03:41;22.80;;;11.00;;
79173;SDS011;68599;49.142;9.124;2024-03-07T04:06:08;17.30;;;9.00;;
79173;SDS011;68599;49.142;9.124;2024-03-07T04:08:35;15.90;;;8.50;;
79173;SDS011;68599;49.142;9.124;2024-03-07T04:11:06;19.80;;;9.40;;
79173;SDS011;68599;49.142;9.124;2024-03-07T04:13:36;14.20;;;7.80;;
79173;SDS011;68599;49.142;9.124;2024-03-07T04:16:03;16.80;;;8.30;;
79173;SDS011;68599;49.142;9.124;2024-03-07T04:18:31;16.80;;;8.80;;
79173;SDS011;68599;49.142;9.124;2024-03-07T04:20:59;14.00;;;7.10;;
79173;SDS011;68599;49.142;9.124;2024-03-07T04:23:26;19.10;;;8.20;;
79173;SDS011;68599;49.142;9.124;2024-03-07T04:25:54;20.40;;;9.50;;
79173;SDS011;68599;49.142;9.124;2024-03-07T04:28:22;20.00;;;9.60;;
79173;SDS011;68599;49.142;9.124;2024-03-07T04:30:49;17.70;;;7.20;;
79173;SDS011;68599;49.142;9.124;2024-03-07T04:33:15;12.40;;;6.90;;
79173;SDS011;68599;49.142;9.124;2024-03-07T04:35:42;13.10;;;7.00;;
79173;SDS011;68599;49.142;9.124;2024-03-07T04:38:09;14.70;;;6.80;;
79173;SDS011;68599;49.142;9.124;2024-03-07T04:40:42;18.90;;;9.70;;
79173;SDS011;68599;49.142;9.124;2024-03-07T04:43:08;14.40;;;6.70;;
79173;SDS011;68599;49.142;9.124;2024-03-07T04:45:35;9.30;;;5.20;;
79173;SDS011;68599;49.142;9.124;2024-03-07T04:48:01;20.60;;;9.90;;
79173;SDS011;68599;49.142;9.124;2024-03-07T04:50:28;20.70;;;8.50;;
79173;SDS011;68599;49.142;9.124;2024-03-07T04:52:55;21.50;;;10.00;;
79173;SDS011;68599;49.142;9.124;2024-03-07T04:55:21;22.20;;;11.90;;
79173;SDS011;68599;49.142;9.124;2024-03-07T04:57:48;11.60;;;5.60;;
79173;SDS011;68599;49.142;9.124;2024-03-07T05:00:14;12.80;;;6.00;;
79173;SDS011;68599;49.142;9.124;2024-03-07T05:02:44;18.70;;;9.30;;
79173;SDS011;68599;49.142;9.124;2024-03-07T05:05:13;16.90;;;7.80;;
79173;SDS011;68599;49.142;9.124;2024-03-07T05:07:40;19.40;;;9.00;;
79173;SDS011;68599;49.142;9.124;2024-03-07T05:10:08;24.40;;;10.60;;
79173;SDS011;68599;49.142;9.124;2024-03-07T05:12:35;15.60;;;8.40;;
79173;SDS011;68599;49.142;9.124;2024-03-07T05:15:04;15.20;;;7.40;;
79173;SDS011;68599;49.142;9.124;2024-03-07T05:17:31;19.90;;;9.60;;
79173;SDS011;68599;49.142;9.124;2024-03-07T05:20:02;15.90;;;8.40;;
79173;SDS011;68599;49.142;9.124;2024-03-07T05:22:29;12.70;;;7.10;;
79173;SDS011;68599;49.142;9.124;2024-03-07T05:24:57;14.90;;;7.80;;
79173;SDS011;68599;49.142;9.124;2024-03-07T05:27:25;13.60;;;6.90;;
79173;SDS011;68599;49.142;9.124;2024-03-07T05:29:54;13.90;;;6.70;;
79173;SDS011;68599;49.142;9.124;2024-03-07T05:32:22;16.30;;;8.60;;
79173;SDS011;68599;49.142;9.124;2024-03-07T05:34:52;20.20;;;9.80;;
79173;SDS011;68599;49.142;9.124;2024-03-07T05:37:22;18.00;;;8.60;;
79173;SDS011;68599;49.142;9.124;2024-03-07T05:39:50;14.50;;;7.70;;
79173;SDS011;68599;49.142;9.124;2024-03-07T05:42:17;16.60;;;8.10;;
79173;SDS011;68599;49.142;9.124;2024-03-07T05:44:44;18.60;;;9.80;;
79173;SDS011;68599;49.142;9.124;2024-03-07T05:47:11;14.40;;;6.50;;
79173;SDS011;68599;49.142;9.124;2024-03-07T05:49:42;15.60;;;7.40;;
79173;SDS011;68599;49.142;9.124;2024-03-07T05:52:09;15.60;;;7.90;;
79173;SDS011;68599;49.142;9.124;2024-03-07T05:54:36;11.10;;;5.70;;
79173;SDS011;68599;49.142;9.124;2024-03-07T05:57:02;12.60;;;6.70;;
79173;SDS011;68599;49.142;9.124;2024-03-07T05:59:29;17.90;;;8.60;;
79173;SDS011;68599;49.142;9.124;2024-03-07T06:01:58;15.40;;;8.50;;
79173;SDS011;68599;49.142;9.124;2024-03-07T06:04:25;14.90;;;7.40;;
79173;SDS011;68599;49.142;9.124;2024-03-07T06:06:51;16.70;;;8.50;;
79173;SDS011;68599;49.142;9.124;2024-03-07T06:09:18;16.40;;;8.40;;
79173;SDS011;68599;49.142;9.124;2024-03-07T06:11:48;14.90;;;7.70;;
79173;SDS011;68599;49.142;9.124;2024-03-07T06:14:16;16.20;;;8.90;;
79173;SDS011;68599;49.142;9.124;2024-03-07T06:16:43;15.10;;;8.40;;
79173;SDS011;68599;49.142;9.124;2024-03-07T06:19:10;17.50;;;9.10;;
79173;SDS011;68599;49.142;9.124;2024-03-07T06:21:38;16.40;;;8.20;;
79173;SDS011;68599;49.142;9.124;2024-03-07T06:24:06;13.40;;;7.40;;
79173;SDS011;68599;49.142;9.124;2024-03-07T06:26:35;15.50;;;7.70;;
79173;SDS011;68599;49.142;9.124;2024-03-07T06:29:26;17.40;;;8.90;;
79173;SDS011;68599;49.142;9.124;2024-03-07T06:31:54;10.40;;;6.00;;
79173;SDS011;68599;49.142;9.124;2024-03-07T06:34:21;16.40;;;8.70;;
79173;SDS011;68599;49.142;9.124;2024-03-07T06:36:48;18.00;;;8.90;;
79173;SDS011;68599;49.142;9.124;2024-03-07T06:39:14;17.20;;;9.10;;
79173;SDS011;68599;49.142;9.124;2024-03-07T06:41:41;17.20;;;8.50;;
79173;SDS011;68599;49.142;9.124;2024-03-07T06:44:09;15.70;;;8.20;;
79173;SDS011;68599;49.142;9.124;2024-03-07T06:46:36;19.90;;;10.00;;
79173;SDS011;68599;49.142;9.124;2024-03-07T06:49:03;16.80;;;8.50;;
79173;SDS011;68599;49.142;9.124;2024-03-07T06:51:32;13.90;;;7.40;;
79173;SDS011;68599;49.142;9.124;2024-03-07T06:53:59;21.80;;;11.00;;
79173;SDS011;68599;49.142;9.124;2024-03-07T06:56:26;22.30;;;10.70;;
79173;SDS011;68599;49.142;9.124;2024-03-07T06:58:53;19.40;;;10.30;;
79173;SDS011;68599;49.142;9.124;2024-03-07T07:01:19;21.30;;;10.50;;
79173;SDS011;68599;49.142;9.124;2024-03-07T07:03:46;22.70;;;11.30;;
79173;SDS011;68599;49.142;9.124;2024-03-07T07:06:14;21.80;;;10.80;;
79173;SDS011;68599;49.142;9.124;2024-03-07T07:08:41;21.90;;;11.10;;
79173;SDS011;68599;49.142;9.124;2024-03-07T07:11:07;20.70;;;9.90;;
79173;SDS011;68599;49.142;9.124;2024-03-07T07:13:34;22.00;;;10.40;;
79173;SDS011;68599;49.142;9.124;2024-03-07T07:16:01;21.10;;;11.00;;
79173;SDS011;68599;49.142;9.124;2024-03-07T07:18:28;17.40;;;8.60;;
79173;SDS011;68599;49.142;9.124;2024-03-07T07:20:55;18.50;;;10.00;;
79173;SDS011;68599;49.142;9.124;2024-03-07T07:23:23;19.10;;;10.10;;
79173;SDS011;68599;49.142;9.124;2024-03-07T07:25:50;17.90;;;9.60;;
79173;SDS011;68599;49.142;9.124;2024-03-07T07:28:16;16.90;;;8.70;;
79173;SDS011;68599;49.142;9.124;2024-03-07T07:30:43;16.20;;;9.10;;
79173;SDS011;68599;49.142;9.124;2024-03-07T07:33:11;14.90;;;8.30;;
79173;SDS011;68599;49.142;9.124;2024-03-07T07:35:40;18.50;;;10.10;;
79173;SDS011;68599;49.142;9.124;2024-03-07T07:38:07;18.90;;;9.50;;
79173;SDS011;68599;49.142;9.124;2024-03-07T07:40:37;15.80;;;8.20;;
79173;SDS011;68599;49.142;9.124;2024-03-07T07:43:04;18.20;;;8.40;;
79173;SDS011;68599;49.142;9.124;2024-03-07T07:45:31;18.20;;;8.90;;
79173;SDS011;68599;49.142;9.124;2024-03-07T07:47:59;14.10;;;7.50;;
79173;SDS011;68599;49.142;9.124;2024-03-07T07:50:26;15.50;;;7.60;;
79173;SDS011;68599;49.142;9.124;2024-03-07T07:52:53;18.10;;;8.30;;
79173;SDS011;68599;49.142;9.124;2024-03-07T07:55:25;15.00;;;8.10;;
79173;SDS011;68599;49.142;9.124;2024-03-07T07:57:55;13.00;;;7.30;;
79173;SDS011;68599;49.142;9.124;2024-03-07T08:00:27;15.00;;;8.70;;
79173;SDS011;68599;49.142;9.124;2024-03-07T08:02:57;15.40;;;8.10;;
79173;SDS011;68599;49.142;9.124;2024-03-07T08:05:36;12.40;;;7.00;;
79173;SDS011;68599;49.142;9.124;2024-03-07T08:08:07;11.00;;;5.80;;
79173;SDS011;68599;49.142;9.124;2024-03-07T08:10:35;16.30;;;8.10;;
79173;SDS011;68599;49.142;9.124;2024-03-07T08:13:03;13.60;;;6.20;;
79173;SDS011;68599;49.142;9.124;2024-03-07T08:15:36;12.70;;;6.60;;
79173;SDS011;68599;49.142;9.124;2024-03-07T08:18:03;12.80;;;7.10;;
79173;SDS011;68599;49.142;9.124;2024-03-07T08:20:36;14.00;;;8.00;;
79173;SDS011;68599;49.142;9.124;2024-03-07T08:23:03;14.10;;;7.20;;
79173;SDS011;68599;49.142;9.124;2024-03-07T08:25:29;15.20;;;8.20;;
79173;SDS011;68599;49.142;9.124;2024-03-07T08:27:57;15.20;;;7.30;;
79173;SDS011;68599;49.142;9.124;2024-03-07T08:30:24;14.00;;;7.90;;
79173;SDS011;68599;49.142;9.124;2024-03-07T08:32:54;12.80;;;6.70;;
79173;SDS011;68599;49.142;9.124;2024-03-07T08:35:22;14.30;;;7.30;;
79173;SDS011;68599;49.142;9.124;2024-03-07T08:40:24;13.40;;;7.30;;
79173;SDS011;68599;49.142;9.124;2024-03-07T08:42:55;14.40;;;7.10;;
79173;SDS011;68599;49.142;9.124;2024-03-07T08:45:23;12.70;;;7.30;;
79173;SDS011;68599;49.142;9.124;2024-03-07T08:47:52;15.10;;;7.80;;
79173;SDS011;68599;49.142;9.124;2024-03-07T08:50:25;12.70;;;6.60;;
79173;SDS011;68599;49.142;9.124;2024-03-07T08:52:53;12.70;;;7.20;;
79173;SDS011;68599;49.142;9.124;2024-03-07T08:55:21;15.10;;;7.60;;
79173;SDS011;68599;49.142;9.124;2024-03-07T08:57:49;14.60;;;7.40;;
79173;SDS011;68599;49.142;9.124;2024-03-07T09:00:17;13.30;;;7.40;;
79173;SDS011;68599;49.142;9.124;2024-03-07T09:02:53;10.20;;;6.20;;
79173;SDS011;68599;49.142;9.124;2024-03-07T09:05:22;12.60;;;7.00;;
79173;SDS011;68599;49.142;9.124;2024-03-07T09:07:50;12.20;;;6.50;;
79173;SDS011;68599;49.142;9.124;2024-03-07T09:10:18;11.80;;;6.80;;
79173;SDS011;68599;49.142;9.124;2024-03-07T09:12:46;13.30;;;7.20;;
79173;SDS011;68599;49.142;9.124;2024-03-07T09:15:15;12.00;;;6.60;;
79173;SDS011;68599;49.142;9.124;2024-03-07T09:17:43;12.10;;;6.40;;
79173;SDS011;68599;49.142;9.124;2024-03-07T09:22:41;11.20;;;5.90;;
79173;SDS011;68599;49.142;9.124;2024-03-07T09:25:10;14.20;;;6.30;;
79173;SDS011;68599;49.142;9.124;2024-03-07T09:27:39;10.80;;;6.30;;
79173;SDS011;68599;49.142;9.124;2024-03-07T09:30:09;14.40;;;6.80;;
79173;SDS011;68599;49.142;9.124;2024-03-07T09:32:41;10.80;;;5.60;;
79173;SDS011;68599;49.142;9.124;2024-03-07T09:35:09;11.70;;;5.80;;
79173;SDS011;68599;49.142;9.124;2024-03-07T09:37:40;10.70;;;5.70;;
79173;SDS011;68599;49.142;9.124;2024-03-07T09:40:09;11.80;;;7.00;;
79173;SDS011;68599;49.142;9.124;2024-03-07T09:42:44;9.60;;;6.40;;
79173;SDS011;68599;49.142;9.124;2024-03-07T09:47:48;10.20;;;7.60;;
79173;SDS011;68599;49.142;9.124;2024-03-07T09:50:20;13.10;;;8.20;;
79173;SDS011;68599;49.142;9.124;2024-03-07T09:52:54;12.10;;;8.40;;
79173;SDS011;68599;49.142;9.124;2024-03-07T09:55:21;14.50;;;10.40;;
79173;SDS011;68599;49.142;9.124;2024-03-07T09:57:53;14.60;;;10.30;;
79173;SDS011;68599;49.142;9.124;2024-03-07T10:00:23;13.50;;;11.10;;
79173;SDS011;68599;49.142;9.124;2024-03-07T10:02:57;13.10;;;11.50;;
79173;SDS011;68599;49.142;9.124;2024-03-07T10:05:28;14.90;;;12.60;;
79173;SDS011;68599;49.142;9.124;2024-03-07T10:07:58;13.00;;;11.70;;
79173;SDS011;68599;49.142;9.124;2024-03-07T10:10:25;14.60;;;13.10;;
79173;SDS011;68599;49.142;9.124;2024-03-07T10:12:52;14.30;;;12.90;;
79173;SDS011;68599;49.142;9.124;2024-03-07T10:17:58;14.70;;;13.10;;
79173;SDS011;68599;49.142;9.124;2024-03-07T10:20:27;14.60;;;13.20;;
79173;SDS011;68599;49.142;9.124;2024-03-07T10:22:54;14.00;;;12.10;;
79173;SDS011;68599;49.142;9.124;2024-03-07T10:25:23;13.90;;;12.50;;
79173;SDS011;68599;49.142;9.124;2024-03-07T10:27:55;14.10;;;12.00;;
79173;SDS011;68599;49.142;9.124;2024-03-07T10:30:25;14.30;;;12.90;;
79173;SDS011;68599;49.142;9.124;2024-03-07T10:32:54;15.20;;;13.80;;
79173;SDS011;68599;49.142;9.124;2024-03-07T10:35:23;15.30;;;13.90;;
79173;SDS011;68599;49.142;9.124;2024-03-07T10:37:54;16.00;;;14.50;;
79173;SDS011;68599;49.142;9.124;2024-03-07T10:40:22;15.30;;;13.80;;
79173;SDS011;68599;49.142;9.124;2024-03-07T10:42:51;15.90;;;14.40;;
79173;SDS011;68599;49.142;9.124;2024-03-07T10:45:22;15.50;;;14.20;;
79173;SDS011;68599;49.142;9.124;2024-03-07T10:47:52;14.00;;;12.60;;
79173;SDS011;68599;49.142;9.124;2024-03-07T10:53:15;15.70;;;14.40;;
79173;SDS011;68599;49.142;9.124;2024-03-07T10:58:37;15.80;;;14.30;;
79173;SDS011;68599;49.142;9.124;2024-03-07T11:01:31;16.00;;;14.40;;
79173;SDS011;68599;49.142;9.124;2024-03-07T11:04:00;17.20;;;15.70;;
79173;SDS011;68599;49.142;9.124;2024-03-07T11:06:32;17.60;;;15.90;;
79173;SDS011;68599;49.142;9.124;2024-03-07T11:09:03;14.00;;;12.70;;
79173;SDS011;68599;49.142;9.124;2024-03-07T11:11:38;16.60;;;15.00;;
79173;SDS011;68599;49.142;9.124;2024-03-07T11:14:08;15.20;;;13.70;;
79173;SDS011;68599;49.142;9.124;2024-03-07T11:16:38;13.70;;;12.40;;
79173;SDS011;68599;49.142;9.124;2024-03-07T11:19:20;15.20;;;13.60;;
79173;SDS011;68599;49.142;9.124;2024-03-07T11:21:53;15.70;;;13.90;;
79173;SDS011;68599;49.142;9.124;2024-03-07T11:26:52;13.20;;;11.80;;
79173;SDS011;68599;49.142;9.124;2024-03-07T11:32:02;14.30;;;12.30;;
79173;SDS011;68599;49.142;9.124;2024-03-07T11:36:56;18.20;;;13.30;;
79173;SDS011;68599;49.142;9.124;2024-03-07T11:39:42;16.60;;;12.40;;
79173;SDS011;68599;49.142;9.124;2024-03-07T11:44:49;13.40;;;11.90;;
79173;SDS011;68599;49.142;9.124;2024-03-07T11:47:17;15.00;;;12.20;;
79173;SDS011;68599;49.142;9.124;2024-03-07T11:49:45;11.70;;;10.40;;
79173;SDS011;68599;49.142;9.124;2024-03-07T11:52:15;14.30;;;12.80;;
79173;SDS011;68599;49.142;9.124;2024-03-07T11:54:43;14.90;;;13.40;;
79173;SDS011;68599;49.142;9.124;2024-03-07T11:57:16;14.80;;;13.30;;
79173;SDS011;68599;49.142;9.124;2024-03-07T11:59:46;15.20;;;12.50;;
79173;SDS011;68599;49.142;9.124;2024-03-07T12:02:19;16.60;;;13.00;;
79173;SDS011;68599;49.142;9.124;2024-03-07T12:04:49;15.10;;;12.10;;
79173;SDS011;68599;49.142;9.124;2024-03-07T12:07:16;12.90;;;11.00;;
79173;SDS011;68599;49.142;9.124;2024-03-07T12:09:49;16.60;;;11.60;;
79173;SDS011;68599;49.142;9.124;2024-03-07T12:12:22;13.20;;;10.80;;
79173;SDS011;68599;49.142;9.124;2024-03-07T12:14:51;14.70;;;11.40;;
79173;SDS011;68599;49.142;9.124;2024-03-07T12:17:19;14.00;;;10.40;;
79173;SDS011;68599;49.142;9.124;2024-03-07T12:19:47;13.30;;;9.30;;
79173;SDS011;68599;49.142;9.124;2024-03-07T12:22:13;15.10;;;10.90;;
79173;SDS011;68599;49.142;9.124;2024-03-07T12:24:41;13.40;;;9.30;;
79173;SDS011;68599;49.142;9.124;2024-03-07T12:27:11;14.50;;;10.50;;
79173;SDS011;68599;49.142;9.124;2024-03-07T12:29:39;16.40;;;10.60;;
79173;SDS011;68599;49.142;9.124;2024-03-07T12:32:09;16.90;;;10.60;;
79173;SDS011;68599;49.142;9.124;2024-03-07T12:34:40;12.80;;;7.50;;
79173;SDS011;68599;49.142;9.124;2024-03-07T12:37:12;16.90;;;10.20;;
79173;SDS011;68599;49.142;9.124;2024-03-07T12:39:43;12.90;;;8.50;;
79173;SDS011;68599;49.142;9.124;2024-03-07T12:42:15;15.30;;;10.10;;
79173;SDS011;68599;49.142;9.124;2024-03-07T12:44:46;15.20;;;9.40;;
79173;SDS011;68599;49.142;9.124;2024-03-07T12:47:13;17.20;;;9.40;;
79173;SDS011;68599;49.142;9.124;2024-03-07T12:49:42;15.40;;;9.00;;
79173;SDS011;68599;49.142;9.124;2024-03-07T12:52:10;14.20;;;8.00;;
79173;SDS011;68599;49.142;9.124;2024-03-07T12:54:41;13.10;;;8.00;;
79173;SDS011;68599;49.142;9.124;2024-03-07T12:57:11;14.80;;;8.00;;
79173;SDS011;68599;49.142;9.124;2024-03-07T12:59:38;10.60;;;6.30;;
79173;SDS011;68599;49.142;9.124;2024-03-07T13:02:09;12.30;;;7.40;;
79173;SDS011;68599;49.142;9.124;2024-03-07T13:04:36;11.20;;;6.30;;
79173;SDS011;68599;49.142;9.124;2024-03-07T13:07:09;10.60;;;6.30;;
79173;SDS011;68599;49.142;9.124;2024-03-07T13:09:36;11.90;;;7.30;;
79173;SDS011;68599;49.142;9.124;2024-03-07T13:12:04;13.60;;;7.40;;
79173;SDS011;68599;49.142;9.124;2024-03-07T13:14:35;10.80;;;6.80;;
79173;SDS011;68599;49.142;9.124;2024-03-07T13:17:02;12.90;;;6.80;;
79173;SDS011;68599;49.142;9.124;2024-03-07T13:19:31;12.30;;;7.80;;
79173;SDS011;68599;49.142;9.124;2024-03-07T13:21:57;9.60;;;5.30;;
79173;SDS011;68599;49.142;9.124;2024-03-07T13:24:25;15.50;;;8.10;;
79173;SDS011;68599;49.142;9.124;2024-03-07T13:26:54;12.50;;;7.70;;
79173;SDS011;68599;49.142;9.124;2024-03-07T13:29:21;11.40;;;6.70;;
79173;SDS011;68599;49.142;9.124;2024-03-07T13:31:51;12.50;;;7.90;;
79173;SDS011;68599;49.142;9.124;2024-03-07T13:34:19;11.80;;;7.20;;
79173;SDS011;68599;49.142;9.124;2024-03-07T13:36:45;11.70;;;6.80;;
79173;SDS011;68599;49.142;9.124;2024-03-07T13:39:12;12.00;;;7.60;;
79173;SDS011;68599;49.142;9.124;2024-03-07T13:41:40;11.30;;;7.20;;
79173;SDS011;68599;49.142;9.124;2024-03-07T13:44:08;10.50;;;6.50;;
79173;SDS011;68599;49.142;9.124;2024-03-07T13:46:35;9.50;;;6.50;;
79173;SDS011;68599;49.142;9.124;2024-03-07T13:49:03;12.60;;;7.10;;
79173;SDS011;68599;49.142;9.124;2024-03-07T13:51:43;11.50;;;7.10;;
79173;SDS011;68599;49.142;9.124;2024-03-07T13:54:17;11.80;;;7.20;;
79173;SDS011;68599;49.142;9.124;2024-03-07T13:59:36;12.70;;;7.20;;
79173;SDS011;68599;49.142;9.124;2024-03-07T14:11:00;15.60;;;8.10;;
79173;SDS011;68599;49.142;9.124;2024-03-07T14:30:51;11.00;;;5.10;;
79173;SDS011;68599;49.142;9.124;2024-03-07T14:33:26;10.50;;;5.60;;
79173;SDS011;68599;49.142;9.124;2024-03-07T14:36:00;13.00;;;7.80;;
79173;SDS011;68599;49.142;9.124;2024-03-07T14:41:23;9.60;;;6.10;;
79173;SDS011;68599;49.142;9.124;2024-03-07T14:44:07;9.20;;;6.10;;
79173;SDS011;68599;49.142;9.124;2024-03-07T14:46:34;9.70;;;5.80;;
79173;SDS011;68599;49.142;9.124;2024-03-07T14:49:01;10.80;;;6.80;;
79173;SDS011;68599;49.142;9.124;2024-03-07T14:51:29;13.50;;;8.40;;
79173;SDS011;68599;49.142;9.124;2024-03-07T14:54:01;9.00;;;5.40;;
79173;SDS011;68599;49.142;9.124;2024-03-07T14:56:29;13.10;;;8.10;;
79173;SDS011;68599;49.142;9.124;2024-03-07T14:58:56;14.90;;;6.70;;
79173;SDS011;68599;49.142;9.124;2024-03-07T15:01:22;15.50;;;7.50;;
79173;SDS011;68599;49.142;9.124;2024-03-07T15:03:53;13.40;;;7.70;;
79173;SDS011;68599;49.142;9.124;2024-03-07T15:06:21;12.10;;;5.50;;
79173;SDS011;68599;49.142;9.124;2024-03-07T15:08:48;15.60;;;8.20;;
79173;SDS011;68599;49.142;9.124;2024-03-07T15:11:33;13.00;;;7.30;;
79173;SDS011;68599;49.142;9.124;2024-03-07T15:14:01;12.00;;;7.10;;
79173;SDS011;68599;49.142;9.124;2024-03-07T15:16:30;10.30;;;6.20;;
79173;SDS011;68599;49.142;9.124;2024-03-07T15:19:06;13.40;;;7.30;;
79173;SDS011;68599;49.142;9.124;2024-03-07T15:21:37;11.00;;;6.70;;
79173;SDS011;68599;49.142;9.124;2024-03-07T15:24:04;11.40;;;6.90;;
79173;SDS011;68599;49.142;9.124;2024-03-07T15:26:31;11.40;;;6.80;;
79173;SDS011;68599;49.142;9.124;2024-03-07T15:28:58;13.40;;;7.50;;
79173;SDS011;68599;49.142;9.124;2024-03-07T15:31:27;13.80;;;6.90;;
79173;SDS011;68599;49.142;9.124;2024-03-07T15:33:55;11.20;;;6.70;;
79173;SDS011;68599;49.142;9.124;2024-03-07T15:36:22;11.70;;;6.90;;
79173;SDS011;68599;49.142;9.124;2024-03-07T15:38:49;9.90;;;5.40;;